Peterborough Airport
CYPQ : now visible

Airfield :











YOU CAN JOIN US ON...

 
LOGIN :

Register | Disclaimer

   EN    FR    IT 

 









Legend :    VFR   Marginal VFR   IFR   Intensive IFR   Very Intensive IFR
Visi :
Ceiling :
>= 8 km
>= 3000ft
5 to 8 km
1000 to 3000 ft
1500m to 5 km
500 to 1000 ft
800 to 1500m
200 to 500 ft
< 800m
< 200 ft
Symbols :   Thunderstorms  Fog  Heavy snow  Heavy precipitations  Wind > 20 kt






- Airport Elevation : 628 ft
- IATA code : YPQ


CYPQ - Peterborough

CURRENT METAR :
  • 290400Z AUTO 22003KT 9SM FEW081 OVC130 13/12 A2989 RMK SLP125

EXPIRED METARs :
  • 290341Z AUTO VRB02KT 9SM BKN076 BKN096 OVC120 14/12 A2989 RMK SLP125
  • 290318Z AUTO 01003KT 9SM -RA BKN071 OVC084 14/12 A2989 RMK SLP124
  • 290304Z AUTO VRB02KT 6SM BR OVC081 14/12 A2989 RMK SLP125
  • 290200Z AUTO 01008KT 9SM BKN060 OVC076 16/11 A2989 RMK SLP124 DENSITY ALT 900FT
  • 290139Z AUTO 35012G17KT 9SM FEW026 SCT055 BKN076 OVC091 16/13 A2988 RMK SLP122 DENSITY ALT 1000FT
  • 290100Z AUTO 27002KT 9SM OVC100 15/14 A2986 RMK SLP115 DENSITY ALT 900FT
  • 290000Z AUTO 26002KT 9SM OVC096 17/14 A2984 RMK SLP109 DENSITY ALT 1100FT

Expired Forecast.
CZYZ FIR / North America



MET'MAP, your aeronautical weather chart ! - Copyright ORBIFLY December 2007 - Disclaimer

ORBIFLY MET'MAP TEAM :

Programming & Development : Alexandra Zaïnal
Original concept : Baudouin d'Aumeries
Technical & hardware support : Manuel Goepfert
Assistance : Marc-Olivier Méhu




SOURCES & CREDITS :

   NOAA       Earth
Advisory